HISTORICAL SENSOR DATA

Sensor Data Report

DB LIVE
CURRENT TIME--:--:--
DEVICE NETWORK Gateway Status
13 ESP · realtime ~1s · history 60s
Weather WS-MOD-01
ONLINE
Actuator ACT-MOD-01
OFFLINE
Mainboard L3 MB-L3-01
ONLINE
Mainboard L5 MB-L5-01
ONLINE
Remote AC AC-REMOTE-01
ONLINE
PZEM L3-01 PWR-L3-01
OFFLINE
PZEM L3-02 PWR-L3-02
OFFLINE
PZEM L3-03 PWR-L3-03
OFFLINE
PZEM L3-04 PWR-L3-04
OFFLINE
PZEM L5-01 PWR-L5-01
ONLINE
PZEM L5-02 PWR-L5-02
ONLINE
PZEM L5-03 PWR-L5-03
OFFLINE
PZEM L5-04 PWR-L5-04
OFFLINE
REPORT FILTER

Periode & Sensor

DATABASE HISTORY
RESET
QUICK RANGE Hari ini 7 hari 30 hari
PERIODE09 Aug 2026sampai 07 Sep 2026
TOTAL DATA80,630sensor readings
MINIMUM-0.50sesuai filter
AVERAGE76.90sesuai filter
MAXIMUM32,564.20sesuai filter
REPORT RESULT

Data Sensor

09/08/2026 — 07/09/2026 EXPORT CSV
NOTANGGALWAKTUDEVICECHANNELSENSORVALUEUNIT
301 07/09/2026 03:05:00 PWR-L5-01Power Meter L5 PZEM 01 PZEM-L5-01-ENERGY PZEM L5-01 Energy 0.09 kWh
302 07/09/2026 03:05:00 MB-L5-01Mainboard Lantai 5 L5-AI-01 Analog Input 1 3.05 V
303 07/09/2026 03:05:00 MB-L3-01Mainboard Lantai 3 L3-SHT-01-T SHT20 1 Temperature 28.10 °C
304 07/09/2026 03:05:00 PWR-L5-02Power Meter L5 PZEM 02 PZEM-L5-02-CURR PZEM L5-02 Current 0.00 A
305 07/09/2026 03:05:00 MB-L5-01Mainboard Lantai 5 L5-ST-02 Surface Temperature 2 22.00 °C
306 07/09/2026 03:05:00 MB-L3-01Mainboard Lantai 3 L3-SHT-03-T SHT20 3 Temperature 28.40 °C
307 07/09/2026 03:05:00 MB-L3-01Mainboard Lantai 3 L3-LUX-06 Illuminance / LUX 6 0.30 lux
308 07/09/2026 03:05:00 MB-L3-01Mainboard Lantai 3 L3-LUX-01 Illuminance / LUX 1 0.20 lux
309 07/09/2026 03:05:00 MB-L5-01Mainboard Lantai 5 L5-LUX-01 Illuminance / LUX 1 0.00 lux
310 07/09/2026 03:05:00 AC-REMOTE-01Remote AC AC-POWER AC Power State 1.00 state
311 07/09/2026 03:05:00 MB-L3-01Mainboard Lantai 3 L3-SHT-03-RH SHT20 3 Humidity 45.90 %RH
312 07/09/2026 03:05:00 MB-L5-01Mainboard Lantai 5 L5-SHT-01-T SHT20 1 Temperature 28.10 °C
313 07/09/2026 03:05:00 MB-L3-01Mainboard Lantai 3 L3-SHT-02-T SHT20 2 Temperature 28.50 °C
314 07/09/2026 03:05:00 PWR-L5-02Power Meter L5 PZEM 02 PZEM-L5-02-PF PZEM L5-02 Power Factor 0.00
315 07/09/2026 03:05:00 AC-REMOTE-01Remote AC AC-FAN AC Fan Speed 0.00 code
316 07/09/2026 03:05:00 MB-L5-01Mainboard Lantai 5 L5-SHT-02-T SHT20 2 Temperature 28.50 °C
317 07/09/2026 03:05:00 MB-L5-01Mainboard Lantai 5 L5-ST-01 Surface Temperature 1 22.90 °C
318 07/09/2026 03:05:00 WS-MOD-01Weather Station Module WS-TEMP Suhu Udara 18.30 °C
319 07/09/2026 03:05:00 MB-L5-01Mainboard Lantai 5 L5-RAD-02 Radiation 2 1.00 W/m²
320 07/09/2026 03:05:00 PWR-L5-02Power Meter L5 PZEM 02 PZEM-L5-02-POWER PZEM L5-02 Active Power 0.00 W
321 07/09/2026 03:05:00 MB-L3-01Mainboard Lantai 3 L3-SHT-01-RH SHT20 1 Humidity 46.90 %RH
322 07/09/2026 03:05:00 PWR-L5-01Power Meter L5 PZEM 01 PZEM-L5-01-POWER PZEM L5-01 Active Power 10.70 W
323 07/09/2026 03:05:00 MB-L5-01Mainboard Lantai 5 L5-SHT-03-T SHT20 3 Temperature 28.40 °C
324 07/09/2026 03:05:00 MB-L5-01Mainboard Lantai 5 L5-LUX-05 Illuminance / LUX 5 0.10 lux
325 07/09/2026 03:05:00 MB-L3-01Mainboard Lantai 3 L3-LUX-03 Illuminance / LUX 3 0.20 lux
326 07/09/2026 03:05:00 MB-L5-01Mainboard Lantai 5 L5-LUX-02 Illuminance / LUX 2 0.10 lux
327 07/09/2026 03:05:00 MB-L3-01Mainboard Lantai 3 L3-LUX-04 Illuminance / LUX 4 0.10 lux
328 07/09/2026 03:05:00 WS-MOD-01Weather Station Module WS-RH Kelembapan Udara 81.80 %RH
329 07/09/2026 03:05:00 AC-REMOTE-01Remote AC AC-SETPOINT AC Set Temperature 23.00 °C
330 07/09/2026 03:05:00 MB-L5-01Mainboard Lantai 5 L5-LUX-04 Illuminance / LUX 4 0.10 lux
331 07/09/2026 03:05:00 PWR-L5-01Power Meter L5 PZEM 01 PZEM-L5-01-PF PZEM L5-01 Power Factor 0.38
332 07/09/2026 03:05:00 MB-L5-01Mainboard Lantai 5 L5-BGT-03 Black Globe Temperature 3 26.00 °C
333 07/09/2026 03:05:00 MB-L5-01Mainboard Lantai 5 L5-SHT-01-RH SHT20 1 Humidity 47.00 %RH
334 07/09/2026 03:05:00 MB-L5-01Mainboard Lantai 5 L5-BGT-02 Black Globe Temperature 2 26.20 °C
335 07/09/2026 03:05:00 PWR-L5-01Power Meter L5 PZEM 01 PZEM-L5-01-CURR PZEM L5-01 Current 0.12 A
336 07/09/2026 03:05:00 PWR-L5-02Power Meter L5 PZEM 02 PZEM-L5-02-ENERGY PZEM L5-02 Energy 0.04 kWh
337 07/09/2026 03:04:00 MB-L5-01Mainboard Lantai 5 L5-AI-04 Analog Input 4 3.05 V
338 07/09/2026 03:04:00 MB-L5-01Mainboard Lantai 5 L5-SHT-02-RH SHT20 2 Humidity 46.20 %RH
339 07/09/2026 03:04:00 MB-L3-01Mainboard Lantai 3 L3-AI-03 Analog Input 3 3.12 V
340 07/09/2026 03:04:00 MB-L3-01Mainboard Lantai 3 L3-AI-02 Analog Input 2 3.12 V
341 07/09/2026 03:04:00 PWR-L5-02Power Meter L5 PZEM 02 PZEM-L5-02-FREQ PZEM L5-02 Frequency 50.00 Hz
342 07/09/2026 03:04:00 PWR-L5-01Power Meter L5 PZEM 01 PZEM-L5-01-VOLT PZEM L5-01 Voltage 227.30 V
343 07/09/2026 03:04:00 MB-L3-01Mainboard Lantai 3 L3-AI-01 Analog Input 1 3.12 V
344 07/09/2026 03:04:00 MB-L5-01Mainboard Lantai 5 L5-HFT-02 Heat Flow Temperature 2 21.90 °C
345 07/09/2026 03:04:00 MB-L5-01Mainboard Lantai 5 L5-SHT-03-RH SHT20 3 Humidity 46.60 %RH
346 07/09/2026 03:04:00 MB-L5-01Mainboard Lantai 5 L5-AI-03 Analog Input 3 3.05 V
347 07/09/2026 03:04:00 WS-MOD-01Weather Station Module WS-WIND Kecepatan Angin 9.54 m/s
348 07/09/2026 03:04:00 WS-MOD-01Weather Station Module WS-DIR Arah Angin 67.40 °
349 07/09/2026 03:04:00 MB-L5-01Mainboard Lantai 5 L5-HFT-01 Heat Flow Temperature 1 22.90 °C
350 07/09/2026 03:04:00 MB-L5-01Mainboard Lantai 5 L5-AI-02 Analog Input 2 3.05 V
351 07/09/2026 03:04:00 MB-L3-01Mainboard Lantai 3 L3-LUX-02 Illuminance / LUX 2 0.20 lux
352 07/09/2026 03:04:00 MB-L3-01Mainboard Lantai 3 L3-SHT-02-RH SHT20 2 Humidity 46.00 %RH
353 07/09/2026 03:04:00 PWR-L5-01Power Meter L5 PZEM 01 PZEM-L5-01-ENERGY PZEM L5-01 Energy 0.09 kWh
354 07/09/2026 03:04:00 MB-L5-01Mainboard Lantai 5 L5-AI-01 Analog Input 1 3.05 V
355 07/09/2026 03:04:00 MB-L3-01Mainboard Lantai 3 L3-SHT-01-T SHT20 1 Temperature 28.00 °C
356 07/09/2026 03:04:00 PWR-L5-02Power Meter L5 PZEM 02 PZEM-L5-02-CURR PZEM L5-02 Current 0.00 A
357 07/09/2026 03:04:00 MB-L5-01Mainboard Lantai 5 L5-ST-02 Surface Temperature 2 22.00 °C
358 07/09/2026 03:04:00 MB-L3-01Mainboard Lantai 3 L3-SHT-03-T SHT20 3 Temperature 28.50 °C
359 07/09/2026 03:04:00 MB-L3-01Mainboard Lantai 3 L3-LUX-06 Illuminance / LUX 6 0.30 lux
360 07/09/2026 03:04:00 MB-L3-01Mainboard Lantai 3 L3-LUX-01 Illuminance / LUX 1 0.20 lux
361 07/09/2026 03:04:00 MB-L5-01Mainboard Lantai 5 L5-LUX-01 Illuminance / LUX 1 0.00 lux
362 07/09/2026 03:04:00 AC-REMOTE-01Remote AC AC-POWER AC Power State 1.00 state
363 07/09/2026 03:04:00 MB-L3-01Mainboard Lantai 3 L3-SHT-03-RH SHT20 3 Humidity 45.90 %RH
364 07/09/2026 03:04:00 MB-L5-01Mainboard Lantai 5 L5-SHT-01-T SHT20 1 Temperature 28.10 °C
365 07/09/2026 03:04:00 MB-L3-01Mainboard Lantai 3 L3-SHT-02-T SHT20 2 Temperature 28.50 °C
366 07/09/2026 03:04:00 PWR-L5-02Power Meter L5 PZEM 02 PZEM-L5-02-PF PZEM L5-02 Power Factor 0.00
367 07/09/2026 03:04:00 AC-REMOTE-01Remote AC AC-FAN AC Fan Speed 0.00 code
368 07/09/2026 03:04:00 MB-L5-01Mainboard Lantai 5 L5-SHT-02-T SHT20 2 Temperature 28.60 °C
369 07/09/2026 03:04:00 MB-L5-01Mainboard Lantai 5 L5-ST-01 Surface Temperature 1 22.80 °C
370 07/09/2026 03:04:00 WS-MOD-01Weather Station Module WS-TEMP Suhu Udara 18.30 °C
371 07/09/2026 03:04:00 MB-L5-01Mainboard Lantai 5 L5-RAD-02 Radiation 2 1.00 W/m²
372 07/09/2026 03:04:00 PWR-L5-02Power Meter L5 PZEM 02 PZEM-L5-02-POWER PZEM L5-02 Active Power 0.00 W
373 07/09/2026 03:04:00 MB-L3-01Mainboard Lantai 3 L3-SHT-01-RH SHT20 1 Humidity 46.90 %RH
374 07/09/2026 03:04:00 PWR-L5-01Power Meter L5 PZEM 01 PZEM-L5-01-POWER PZEM L5-01 Active Power 10.80 W
375 07/09/2026 03:04:00 MB-L5-01Mainboard Lantai 5 L5-SHT-03-T SHT20 3 Temperature 28.40 °C
376 07/09/2026 03:04:00 MB-L5-01Mainboard Lantai 5 L5-LUX-05 Illuminance / LUX 5 0.10 lux
377 07/09/2026 03:04:00 MB-L3-01Mainboard Lantai 3 L3-LUX-03 Illuminance / LUX 3 0.20 lux
378 07/09/2026 03:04:00 MB-L5-01Mainboard Lantai 5 L5-LUX-02 Illuminance / LUX 2 0.10 lux
379 07/09/2026 03:04:00 MB-L3-01Mainboard Lantai 3 L3-LUX-04 Illuminance / LUX 4 0.10 lux
380 07/09/2026 03:04:00 WS-MOD-01Weather Station Module WS-RH Kelembapan Udara 81.80 %RH
381 07/09/2026 03:04:00 AC-REMOTE-01Remote AC AC-SETPOINT AC Set Temperature 23.00 °C
382 07/09/2026 03:04:00 MB-L5-01Mainboard Lantai 5 L5-LUX-04 Illuminance / LUX 4 0.10 lux
383 07/09/2026 03:04:00 PWR-L5-01Power Meter L5 PZEM 01 PZEM-L5-01-PF PZEM L5-01 Power Factor 0.38
384 07/09/2026 03:04:00 MB-L5-01Mainboard Lantai 5 L5-BGT-03 Black Globe Temperature 3 26.00 °C
385 07/09/2026 03:04:00 MB-L5-01Mainboard Lantai 5 L5-SHT-01-RH SHT20 1 Humidity 47.10 %RH
386 07/09/2026 03:04:00 MB-L5-01Mainboard Lantai 5 L5-BGT-02 Black Globe Temperature 2 26.20 °C
387 07/09/2026 03:04:00 PWR-L5-01Power Meter L5 PZEM 01 PZEM-L5-01-CURR PZEM L5-01 Current 0.13 A
388 07/09/2026 03:04:00 PWR-L5-02Power Meter L5 PZEM 02 PZEM-L5-02-ENERGY PZEM L5-02 Energy 0.04 kWh
389 07/09/2026 03:04:00 MB-L5-01Mainboard Lantai 5 L5-BGT-01 Black Globe Temperature 1 26.30 °C
390 07/09/2026 03:04:00 MB-L5-01Mainboard Lantai 5 L5-LUX-03 Illuminance / LUX 3 0.20 lux
391 07/09/2026 03:04:00 MB-L5-01Mainboard Lantai 5 L5-AI-06 Analog Input 6 3.05 V
392 07/09/2026 03:04:00 MB-L5-01Mainboard Lantai 5 L5-RAD-01 Radiation 1 1.00 W/m²
393 07/09/2026 03:04:00 MB-L3-01Mainboard Lantai 3 L3-RAD-01 Radiation 1 1.00 W/m²
394 07/09/2026 03:04:00 PWR-L5-02Power Meter L5 PZEM 02 PZEM-L5-02-VOLT PZEM L5-02 Voltage 227.20 V
395 07/09/2026 03:04:00 PWR-L5-01Power Meter L5 PZEM 01 PZEM-L5-01-FREQ PZEM L5-01 Frequency 50.00 Hz
396 07/09/2026 03:04:00 MB-L3-01Mainboard Lantai 3 L3-AI-06 Analog Input 6 3.12 V
397 07/09/2026 03:04:00 WS-MOD-01Weather Station Module WS-PRES Tekanan Udara 910.00 hPa
398 07/09/2026 03:04:00 MB-L5-01Mainboard Lantai 5 L5-AI-05 Analog Input 5 3.05 V
399 07/09/2026 03:04:00 MB-L3-01Mainboard Lantai 3 L3-AI-05 Analog Input 5 3.12 V
400 07/09/2026 03:04:00 MB-L5-01Mainboard Lantai 5 L5-LUX-06 Illuminance / LUX 6 0.10 lux
Menampilkan maksimal 100 data per halaman